Time;durP1;ratioP1;P1;durP2;ratioP2;P2;SDS_P1;SDS_P2;PMS_P1;PMS_P2;Temp;Humidity;BMP_temperature;BMP_pressure;BME280_temperature;BME280_humidity;BME280_pressure;Samples;Min_cycle;Max_cycle;Signal;HPM_P1;HPM_P2
2022/09/24 00:01:19;;;;;;;15.40;13.83;;;;;;;-150.27;100.00;61272.81;5192657;28;20102;-72
2022/09/24 00:03:59;;;;;;;15.57;13.97;;;;;;;-150.27;100.00;61272.81;5193388;28;20022;-73
2022/09/24 00:06:35;;;;;;;16.33;14.33;;;;;;;-150.27;100.00;61272.81;5190784;28;20147;-72
2022/09/24 00:09:11;;;;;;;15.33;13.10;;;;;;;-150.27;100.00;61272.81;5201725;28;20552;-73
2022/09/24 00:11:44;;;;;;;14.93;13.43;;;;;;;-150.27;100.00;61272.81;5194736;28;20042;-74
2022/09/24 00:14:16;;;;;;;14.47;12.97;;;;;;;-150.27;100.00;61272.81;5191818;28;20146;-72
2022/09/24 00:16:48;;;;;;;15.90;14.27;;;;;;;-150.27;100.00;61272.81;5192441;28;20042;-72
2022/09/24 00:19:19;;;;;;;15.07;13.50;;;;;;;-150.27;100.00;61272.81;5192015;28;20030;-72
2022/09/24 00:21:51;;;;;;;16.13;14.17;;;;;;;-150.27;100.00;61272.81;5196523;28;20064;-74
2022/09/24 00:27:13;;;;;;;15.37;13.77;;;;;;;-150.27;100.00;61272.81;5192422;28;20042;-73
2022/09/24 00:29:44;;;;;;;15.63;14.03;;;;;;;-150.27;100.00;61272.81;5191029;28;20022;-73
2022/09/24 00:32:15;;;;;;;14.60;13.17;;;;;;;-150.27;100.00;61272.81;5193875;28;20026;-73
2022/09/24 00:34:46;;;;;;;14.80;12.87;;;;;;;-150.27;100.00;61272.81;5199041;28;20030;-73
2022/09/24 00:37:19;;;;;;;14.23;12.83;;;;;;;-150.27;100.00;61272.81;5194979;28;20385;-73
2022/09/24 00:39:50;;;;;;;15.03;13.43;;;;;;;-150.27;100.00;61272.81;5195458;28;20034;-73
2022/09/24 00:42:21;;;;;;;15.17;13.57;;;;;;;-150.27;100.00;61272.81;5195220;28;20462;-73
2022/09/24 00:44:54;;;;;;;15.40;13.70;;;;;;;-150.27;100.00;61272.81;5194781;28;20066;-72
2022/09/24 00:47:28;;;;;;;13.63;12.23;;;;;;;-150.27;100.00;61272.81;5195497;28;20027;-73
2022/09/24 00:50:17;;;;;;;14.50;13.05;;;;;;;-150.27;100.00;61272.81;5195761;28;20077;-73
2022/09/24 00:53:09;;;;;;;16.67;12.90;;;;;;;-150.27;100.00;61272.81;5195560;28;20041;-72
2022/09/24 00:55:44;;;;;;;15.97;13.03;;;;;;;-150.27;100.00;61272.81;5195547;28;20053;-73
2022/09/24 00:58:16;;;;;;;13.97;12.57;;;;;;;-150.27;100.00;61272.81;5194445;28;20040;-73
2022/09/24 01:00:51;;;;;;;14.03;12.53;;;;;;;-150.27;100.00;61272.81;5195802;28;20044;-73
2022/09/24 01:03:24;;;;;;;;;;;;;;;-150.27;100.00;61272.81;5195749;28;20030;-73
2022/09/24 01:05:55;;;;;;;14.67;13.17;;;;;;;-150.27;100.00;61272.81;5195803;28;20293;-73
2022/09/24 01:08:27;;;;;;;15.13;12.40;;;;;;;-150.27;100.00;61272.81;5233974;22;20504;-73
2022/09/24 01:11:21;;;;;;;14.57;13.17;;;;;;;-150.27;100.00;61272.81;5220970;28;20033;-73
2022/09/24 01:14:10;;;;;;;13.85;12.43;;;;;;;-150.27;100.00;61272.81;5196765;28;20034;-73
2022/09/24 01:17:09;;;;;;;14.60;12.60;;;;;;;-150.27;100.00;61272.81;5214348;28;20022;-73
2022/09/24 01:20:07;;;;;;;14.53;13.07;;;;;;;-150.27;100.00;61272.81;5214814;28;20177;-72
2022/09/24 01:23:16;;;;;;;13.10;11.80;;;;;;;-150.27;100.00;61272.81;5214879;28;20152;-73
2022/09/24 01:25:58;;;;;;;13.00;11.70;;;;;;;-150.27;100.00;61272.81;5214628;28;20034;-73
2022/09/24 01:28:36;;;;;;;14.83;12.07;;;;;;;-150.27;100.00;61272.81;5213488;28;20041;-73
2022/09/24 01:31:15;;;;;;;14.13;12.63;;;;;;;-150.27;100.00;61272.81;5215061;28;20041;-73
2022/09/24 01:33:52;;;;;;;13.47;12.03;;;;;;;-150.27;100.00;61272.81;5214852;28;20555;-73
2022/09/24 01:36:26;;;;;;;13.30;11.83;;;;;;;-150.27;100.00;61272.81;5196853;28;20034;-73
2022/09/24 01:39:00;;;;;;;13.13;11.50;;;;;;;-150.27;100.00;61272.81;5215140;28;20041;-73
2022/09/24 01:41:33;;;;;;;12.70;11.20;;;;;;;-150.27;100.00;61272.81;5214474;28;20037;-73
2022/09/24 01:44:06;;;;;;;13.77;11.90;;;;;;;-150.27;100.00;61272.81;5196402;28;20022;-73
2022/09/24 01:46:39;;;;;;;14.80;12.47;;;;;;;-150.27;100.00;61272.81;5214727;28;20492;-73
2022/09/24 01:49:11;;;;;;;14.73;12.50;;;;;;;-150.27;100.00;61272.81;5214599;28;20628;-73
2022/09/24 01:51:48;;;;;;;15.00;11.33;;;;;;;-150.27;100.00;61272.81;5214512;28;20030;-73
2022/09/24 01:54:37;;;;;;;14.50;12.10;;;;;;;-150.27;100.00;61272.81;5213894;28;20066;-73
2022/09/24 01:57:14;;;;;;;14.20;12.70;;;;;;;-150.27;100.00;61272.81;5214115;28;20045;-73
2022/09/24 01:59:58;;;;;;;14.27;11.97;;;;;;;-150.27;100.00;61272.81;5196017;28;20033;-73
2022/09/24 02:02:42;;;;;;;14.18;12.60;;;;;;;-150.27;100.00;61272.81;5214119;28;20080;-73
2022/09/24 02:05:28;;;;;;;13.88;12.48;;;;;;;-150.27;100.00;61272.81;5214286;28;20030;-72
2022/09/24 02:07:59;;;;;;;14.63;12.53;;;;;;;-150.27;100.00;61272.81;5214260;28;20065;-73
2022/09/24 02:10:37;;;;;;;14.20;12.03;;;;;;;-150.27;100.00;61272.81;5214281;28;20036;-73
2022/09/24 02:13:12;;;;;;;13.47;12.17;;;;;;;-150.27;100.00;61272.81;5213524;28;20413;-73
2022/09/24 02:15:49;;;;;;;14.33;12.93;;;;;;;-150.27;100.00;61272.81;5214335;28;20041;-72
2022/09/24 02:18:24;;;;;;;14.33;12.40;;;;;;;-150.27;100.00;61272.81;5196260;28;20030;-73
2022/09/24 02:20:58;;;;;;;15.63;13.83;;;;;;;-150.27;100.00;61272.81;5213952;28;20507;-73
2022/09/24 02:23:32;;;;;;;;;;;;;;;-150.27;100.00;61272.81;5213776;28;20030;-73
2022/09/24 02:26:04;;;;;;;15.30;13.50;;;;;;;-150.27;100.00;61272.81;5214303;28;20037;-73
2022/09/24 02:28:36;;;;;;;19.30;14.57;;;;;;;-150.27;100.00;61272.81;5212407;28;20037;-73
2022/09/24 02:31:12;;;;;;;16.93;13.57;;;;;;;-150.27;100.00;61272.81;5213658;28;20034;-73
2022/09/24 02:36:39;;;;;;;15.60;13.40;;;;;;;-150.27;100.00;61272.81;5213730;28;20030;-73
2022/09/24 02:39:11;;;;;;;15.87;14.17;;;;;;;-150.27;100.00;61272.81;5196012;28;20026;-73
2022/09/24 02:41:46;;;;;;;17.73;15.17;;;;;;;-150.27;100.00;61272.81;5213648;28;20037;-72
2022/09/24 02:44:18;;;;;;;16.77;15.07;;;;;;;-150.27;100.00;61272.81;5212021;28;20029;-72
2022/09/24 02:46:50;;;;;;;16.97;15.27;;;;;;;-150.27;100.00;61272.81;5213691;28;20034;-72
2022/09/24 02:49:21;;;;;;;16.97;15.00;;;;;;;-150.27;100.00;61272.81;5212845;28;20028;-72
2022/09/24 02:51:52;;;;;;;17.00;15.33;;;;;;;-150.27;100.00;61272.81;5213994;28;20029;-72
2022/09/24 02:54:24;;;;;;;19.20;17.20;;;;;;;-150.27;100.00;61272.81;5212003;28;20479;-72
2022/09/24 02:56:56;;;;;;;18.07;16.13;;;;;;;-150.27;100.00;61272.81;5213722;28;20041;-72
2022/09/24 02:59:27;;;;;;;18.30;16.43;;;;;;;-150.27;100.00;61272.81;5210940;28;20073;-72
2022/09/24 03:01:58;;;;;;;18.67;16.50;;;;;;;-150.27;100.00;61272.81;5217378;28;20046;-72
2022/09/24 03:04:30;;;;;;;19.90;17.47;;;;;;;-150.27;100.00;61272.81;5214311;28;20044;-72
2022/09/24 03:07:01;;;;;;;21.20;16.03;;;;;;;-150.27;100.00;61272.81;5212813;28;20706;-73
2022/09/24 03:09:33;;;;;;;20.00;17.97;;;;;;;-150.27;100.00;61272.81;5212839;28;20021;-72
2022/09/24 03:12:04;;;;;;;23.80;19.00;;;;;;;-150.27;100.00;61272.81;5213048;28;20022;-72
2022/09/24 03:14:35;;;;;;;25.50;21.03;;;;;;;-150.27;100.00;61272.81;5212427;28;20041;-72
2022/09/24 03:17:07;;;;;;;22.63;20.30;;;;;;;-150.27;100.00;61272.81;5213335;28;20152;-72
2022/09/24 03:19:38;;;;;;;24.17;21.60;;;;;;;-150.27;100.00;61272.81;5212400;28;20030;-72
2022/09/24 03:22:09;;;;;;;24.53;21.80;;;;;;;-150.27;100.00;61272.81;5213105;28;20026;-72
2022/09/24 03:24:41;;;;;;;26.70;22.37;;;;;;;-150.27;100.00;61272.81;5211057;28;20200;-73
2022/09/24 03:27:12;;;;;;;26.13;23.20;;;;;;;-150.27;100.00;61272.81;5212991;28;20034;-72
2022/09/24 03:32:34;;;;;;;26.50;23.07;;;;;;;-150.27;100.00;61272.81;5212895;28;20493;-72
2022/09/24 03:35:06;;;;;;;26.27;23.47;;;;;;;-150.27;100.00;61272.81;5212517;28;20037;-72
2022/09/24 03:37:41;;;;;;;24.87;22.13;;;;;;;-150.27;100.00;61272.81;5212242;28;20034;-72
2022/09/24 03:40:13;;;;;;;26.80;23.40;;;;;;;-150.27;100.00;61272.81;5211662;28;20041;-72
2022/09/24 03:42:44;;;;;;;26.33;23.63;;;;;;;-150.27;100.00;61272.81;5212061;28;20030;-72
2022/09/24 03:45:15;;;;;;;24.27;21.87;;;;;;;-150.27;100.00;61272.81;5211672;28;20034;-72
2022/09/24 03:47:47;;;;;;;27.27;24.47;;;;;;;-150.27;100.00;61272.81;5211449;28;20034;-73
2022/09/24 03:50:18;;;;;;;26.27;22.83;;;;;;;-150.27;100.00;61272.81;5212371;28;20119;-72
2022/09/24 03:52:49;;;;;;;28.73;23.43;;;;;;;-150.27;100.00;61272.81;5211933;28;20044;-73
2022/09/24 03:55:21;;;;;;;25.17;22.47;;;;;;;-150.27;100.00;61272.81;5212203;28;20033;-73
2022/09/24 03:57:52;;;;;;;24.50;21.43;;;;;;;-150.27;100.00;61272.81;5211266;28;20033;-73
2022/09/24 04:00:23;;;;;;;24.33;21.77;;;;;;;-150.27;100.00;61272.81;5212163;28;20117;-73
2022/09/24 04:02:54;;;;;;;23.67;21.13;;;;;;;-150.27;100.00;61272.81;5232463;28;20040;-72
2022/09/24 04:05:26;;;;;;;24.57;22.07;;;;;;;-150.27;100.00;61272.81;5228418;28;20029;-72
2022/09/24 04:07:58;;;;;;;25.57;21.77;;;;;;;-150.27;100.00;61272.81;5194251;28;20503;-72
2022/09/24 04:10:30;;;;;;;25.13;22.03;;;;;;;-150.27;100.00;61272.81;5193670;28;20748;-72
2022/09/24 04:13:02;;;;;;;23.83;21.33;;;;;;;-150.27;100.00;61272.81;5211315;28;20038;-72
2022/09/24 04:15:33;;;;;;;24.30;21.80;;;;;;;-150.27;100.00;61272.81;5211221;28;20453;-72
2022/09/24 04:18:05;;;;;;;22.47;20.10;;;;;;;-150.27;100.00;61272.81;5212320;28;20026;-72
2022/09/24 04:20:37;;;;;;;23.97;20.43;;;;;;;-150.27;100.00;61272.81;5211586;28;20095;-73
2022/09/24 04:23:09;;;;;;;25.37;20.37;;;;;;;-150.27;100.00;61272.81;5212050;28;20476;-70
2022/09/24 04:25:40;;;;;;;23.30;19.50;;;;;;;-150.27;100.00;61272.81;5211897;28;20033;-71
2022/09/24 04:28:12;;;;;;;23.27;20.87;;;;;;;-150.27;100.00;61272.81;5210456;28;20088;-70
2022/09/24 04:30:43;;;;;;;23.53;21.03;;;;;;;-150.27;100.00;61272.81;5193673;28;20089;-72
2022/09/24 04:33:15;;;;;;;22.87;20.37;;;;;;;-150.27;100.00;61272.81;5210883;28;20456;-72
2022/09/24 04:35:47;;;;;;;25.67;21.33;;;;;;;-150.27;100.00;61272.81;5215733;28;20034;-73
2022/09/24 04:38:20;;;;;;;22.17;19.77;;;;;;;-150.27;100.00;61272.81;5211143;28;20033;-73
2022/09/24 04:40:51;;;;;;;22.77;20.37;;;;;;;-150.27;100.00;61272.81;5211251;28;20441;-73
2022/09/24 04:43:23;;;;;;;24.43;20.77;;;;;;;-150.27;100.00;61272.81;5209796;28;20117;-73
2022/09/24 04:45:57;;;;;;;21.13;18.83;;;;;;;-150.27;100.00;61272.81;5211232;28;20105;-72
2022/09/24 04:48:28;;;;;;;;;;;;;;;-150.27;100.00;61272.81;5211419;28;20044;-72
2022/09/24 04:51:01;;;;;;;22.67;20.27;;;;;;;-150.27;100.00;61272.81;5213357;28;20004;-72
2022/09/24 04:53:34;;;;;;;23.17;20.27;;;;;;;-150.27;100.00;61272.81;5217087;28;20045;-72
2022/09/24 04:56:10;;;;;;;22.80;20.23;;;;;;;-150.27;100.00;61272.81;5211407;28;20388;-72
2022/09/24 04:58:42;;;;;;;24.37;21.77;;;;;;;-150.27;100.00;61272.81;5212907;28;20452;-72
2022/09/24 05:01:14;;;;;;;23.90;20.60;;;;;;;-150.27;100.00;61272.81;5211063;28;20036;-72
2022/09/24 05:03:45;;;;;;;22.73;20.13;;;;;;;-150.27;100.00;61272.81;5193916;28;20030;-72
2022/09/24 05:06:16;;;;;;;21.47;19.17;;;;;;;-150.27;100.00;61272.81;5211059;28;20134;-72
2022/09/24 05:08:48;;;;;;;21.43;19.10;;;;;;;-150.27;100.00;61272.81;5211183;28;20049;-72
2022/09/24 05:11:19;;;;;;;20.83;18.73;;;;;;;-150.27;100.00;61272.81;5210881;28;20033;-73
2022/09/24 05:13:51;;;;;;;22.60;19.67;;;;;;;-150.27;100.00;61272.81;5210279;28;20457;-73
2022/09/24 05:16:22;;;;;;;20.10;17.97;;;;;;;-150.27;100.00;61272.81;5211356;28;20034;-73
2022/09/24 05:18:54;;;;;;;20.83;18.60;;;;;;;-150.27;100.00;61272.81;5197346;28;20029;-73
2022/09/24 05:21:25;;;;;;;21.17;18.07;;;;;;;-150.27;100.00;61272.81;5213415;28;20527;-73
2022/09/24 05:23:56;;;;;;;18.87;16.87;;;;;;;-150.27;100.00;61272.81;5214650;28;20034;-73
2022/09/24 05:29:18;;;;;;;18.30;15.77;;;;;;;-150.27;100.00;61272.81;5213685;28;20042;-73
2022/09/24 05:31:49;;;;;;;17.57;15.77;;;;;;;-150.27;100.00;61272.81;5214731;28;20365;-73
2022/09/24 05:34:20;;;;;;;17.43;15.63;;;;;;;-150.27;100.00;61272.81;5214735;28;20037;-73
2022/09/24 05:36:52;;;;;;;19.53;17.53;;;;;;;-150.27;100.00;61272.81;5214352;28;20030;-73
2022/09/24 05:39:23;;;;;;;18.03;16.20;;;;;;;-150.27;100.00;61272.81;5214965;28;20504;-73
2022/09/24 05:41:55;;;;;;;19.27;16.37;;;;;;;-150.27;100.00;61272.81;5214400;28;20030;-73
2022/09/24 05:44:26;;;;;;;18.90;15.97;;;;;;;-150.27;100.00;61272.81;5213434;28;20025;-72
2022/09/24 05:46:58;;;;;;;16.93;15.23;;;;;;;-150.27;100.00;61272.81;5214641;28;20032;-72
2022/09/24 05:49:29;;;;;;;17.53;14.47;;;;;;;-150.27;100.00;61272.81;5214076;28;20042;-72
2022/09/24 05:52:01;;;;;;;16.70;14.90;;;;;;;-150.27;100.00;61272.81;5214885;28;20034;-72
2022/09/24 05:54:32;;;;;;;17.23;15.37;;;;;;;-150.27;100.00;61272.81;5196268;28;20123;-72
2022/09/24 05:57:03;;;;;;;18.47;14.80;;;;;;;-150.27;100.00;61272.81;5215417;28;20030;-72
2022/09/24 05:59:34;;;;;;;15.53;13.77;;;;;;;-150.27;100.00;61272.81;5212757;28;20033;-72
2022/09/24 06:02:06;;;;;;;16.30;14.60;;;;;;;-150.27;100.00;61272.81;5214853;28;20033;-72
2022/09/24 06:04:37;;;;;;;16.97;15.27;;;;;;;-150.27;100.00;61272.81;5214132;28;20515;-72
2022/09/24 06:07:09;;;;;;;16.83;14.63;;;;;;;-150.27;100.00;61272.81;5213389;28;20049;-72
2022/09/24 06:09:40;;;;;;;17.20;15.23;;;;;;;-150.27;100.00;61272.81;5214072;28;20131;-72
2022/09/24 06:12:13;;;;;;;16.40;14.40;;;;;;;-150.27;100.00;61272.81;5195503;28;20057;-72
2022/09/24 06:14:44;;;;;;;21.53;16.13;;;;;;;-150.27;100.00;61272.81;5213207;28;20449;-72
2022/09/24 06:17:15;;;;;;;15.47;13.87;;;;;;;-150.27;100.00;61272.81;5213400;28;20087;-72
2022/09/24 06:19:46;;;;;;;16.27;14.60;;;;;;;-150.27;100.00;61272.81;5213811;28;20057;-72
2022/09/24 06:22:19;;;;;;;18.47;15.20;;;;;;;-150.27;100.00;61272.81;5213730;28;20064;-72
2022/09/24 06:24:50;;;;;;;19.50;16.23;;;;;;;-150.27;100.00;61272.81;5213604;28;20548;-72
2022/09/24 06:27:21;;;;;;;18.07;16.17;;;;;;;-150.27;100.00;61272.81;5212841;28;20105;-72
2022/09/24 06:29:52;;;;;;;17.40;15.17;;;;;;;-150.27;100.00;61272.81;5212465;28;20021;-72
2022/09/24 06:32:24;;;;;;;19.73;15.67;;;;;;;-150.27;100.00;61272.81;5213569;28;20472;-72
2022/09/24 06:34:55;;;;;;;19.10;15.53;;;;;;;-150.27;100.00;61272.81;5196131;28;20026;-72
2022/09/24 06:37:27;;;;;;;16.87;15.17;;;;;;;-150.27;100.00;61272.81;5213531;28;20026;-72
2022/09/24 06:39:58;;;;;;;18.30;15.00;;;;;;;-150.27;100.00;61272.81;5213658;28;20041;-72
2022/09/24 06:42:29;;;;;;;17.53;15.63;;;;;;;-150.27;100.00;61272.81;5212011;28;20076;-72
2022/09/24 06:45:01;;;;;;;19.30;15.23;;;;;;;-150.27;100.00;61272.81;5213345;28;20108;-72
2022/09/24 06:47:32;;;;;;;19.50;15.83;;;;;;;-150.27;100.00;61272.81;5212717;28;20472;-72
2022/09/24 06:50:04;;;;;;;17.63;15.80;;;;;;;-150.27;100.00;61272.81;5196212;28;20492;-72
2022/09/24 06:52:35;;;;;;;17.97;15.53;;;;;;;-150.27;100.00;61272.81;5195109;28;20037;-72
2022/09/24 06:55:07;;;;;;;19.73;15.67;;;;;;;-150.27;100.00;61272.81;5213550;28;20487;-72
2022/09/24 06:57:39;;;;;;;19.50;15.83;;;;;;;-150.27;100.00;61272.81;5212133;28;20041;-72
2022/09/24 07:00:12;;;;;;;18.47;16.57;;;;;;;-150.27;100.00;61272.81;5213218;28;20471;-72
2022/09/24 07:02:50;;;;;;;19.67;17.47;;;;;;;-150.27;100.00;61272.81;5213217;28;20417;-72
2022/09/24 07:05:21;;;;;;;18.47;16.37;;;;;;;-150.27;100.00;61272.81;5212891;28;20026;-72
2022/09/24 07:07:53;;;;;;;20.40;18.07;;;;;;;-150.27;100.00;61272.81;5215152;28;20092;-72
2022/09/24 07:10:26;;;;;;;19.03;16.83;;;;;;;-150.27;100.00;61272.81;5194354;28;20099;-72
2022/09/24 07:12:58;;;;;;;18.08;15.63;;;;;;;-150.27;100.00;61272.81;5212129;28;20116;-72
2022/09/24 07:15:30;;;;;;;20.67;17.67;;;;;;;-150.27;100.00;61272.81;5212381;28;20030;-72
2022/09/24 07:18:01;;;;;;;19.93;17.90;;;;;;;-150.27;100.00;61272.81;5212891;28;20032;-72
2022/09/24 07:20:35;;;;;;;20.13;17.97;;;;;;;-150.27;100.00;61272.81;5212798;28;20033;-72
2022/09/24 07:23:09;;;;;;;18.52;16.60;;;;;;;-150.27;100.00;61272.81;5195394;28;20040;-72
2022/09/24 07:25:40;;;;;;;19.27;17.25;;;;;;;-150.27;100.00;61272.81;5215259;28;20026;-72
2022/09/24 07:28:14;;;;;;;19.97;17.97;;;;;;;-150.27;100.00;61272.81;5194199;28;20075;-72
2022/09/24 07:30:46;;;;;;;19.45;17.52;;;;;;;-150.27;100.00;61272.81;5212572;28;20037;-72
2022/09/24 07:33:17;;;;;;;20.57;18.50;;;;;;;-150.27;100.00;61272.81;5211585;28;20026;-73
2022/09/24 07:35:49;;;;;;;22.07;18.13;;;;;;;-150.27;100.00;61272.81;5212933;28;20032;-76
2022/09/24 07:38:21;;;;;;;19.60;17.70;;;;;;;-150.27;100.00;61272.81;5212406;28;20380;-74
2022/09/24 07:40:57;;;;;;;20.97;18.80;;;;;;;-150.27;100.00;61272.81;5214330;28;20079;-74
2022/09/24 07:43:29;;;;;;;21.20;18.70;;;;;;;-150.27;100.00;61272.81;5196331;28;20125;-73
2022/09/24 07:46:00;;;;;;;22.00;19.63;;;;;;;-150.27;100.00;61272.81;5212631;28;20400;-72
2022/09/24 07:48:31;;;;;;;21.93;19.33;;;;;;;-150.27;100.00;61272.81;5212107;28;20064;-74
2022/09/24 07:51:05;;;;;;;21.37;19.07;;;;;;;-150.27;100.00;61272.81;5212163;28;20037;-72
2022/09/24 07:53:37;;;;;;;26.27;20.57;;;;;;;-150.27;100.00;61272.81;5221680;28;21095;-74
2022/09/24 07:56:08;;;;;;;23.43;20.93;;;;;;;-150.27;100.00;61272.81;5211572;28;20069;-73
2022/09/24 07:58:39;;;;;;;26.23;20.60;;;;;;;-150.27;100.00;61272.81;5216771;28;20022;-74
2022/09/24 08:01:11;;;;;;;22.23;19.83;;;;;;;-150.27;100.00;61272.81;5217226;28;20044;-72
2022/09/24 08:03:44;;;;;;;22.00;19.73;;;;;;;-150.27;100.00;61272.81;5212141;28;20111;-71
2022/09/24 08:06:16;;;;;;;22.13;19.83;;;;;;;-150.27;100.00;61272.81;5215900;28;20470;-71
2022/09/24 08:08:49;;;;;;;21.23;18.90;;;;;;;-150.27;100.00;61272.81;5228711;28;20140;-72
2022/09/24 08:11:21;;;;;;;21.77;19.47;;;;;;;-150.27;100.00;61272.81;5228454;28;20117;-71
2022/09/24 08:13:54;;;;;;;21.27;19.17;;;;;;;-150.27;100.00;61272.81;5210697;28;20365;-71
2022/09/24 08:16:26;;;;;;;21.33;19.03;;;;;;;-150.27;100.00;61272.81;5213030;28;20033;-73
2022/09/24 08:18:57;;;;;;;21.90;19.60;;;;;;;-150.27;100.00;61272.81;5224150;28;20516;-74
2022/09/24 08:21:29;;;;;;;21.27;19.13;;;;;;;-150.27;100.00;61272.81;5225408;28;20033;-73
2022/09/24 08:24:00;;;;;;;23.23;20.77;;;;;;;-150.27;100.00;61272.81;5220638;28;20033;-73
2022/09/24 08:26:31;;;;;;;20.57;18.57;;;;;;;-150.27;100.00;61272.81;5229058;28;20030;-71
2022/09/24 08:29:03;;;;;;;22.57;19.93;;;;;;;-150.27;100.00;61272.81;5211454;28;20088;-71
2022/09/24 08:31:34;;;;;;;22.27;19.33;;;;;;;-150.27;100.00;61272.81;5212626;28;20033;-71
2022/09/24 08:34:05;;;;;;;21.83;19.67;;;;;;;-150.27;100.00;61272.81;5211739;28;20056;-71
2022/09/24 08:36:37;;;;;;;21.87;19.53;;;;;;;-150.27;100.00;61272.81;5212226;28;20022;-71
2022/09/24 08:39:11;;;;;;;23.50;19.73;;;;;;;-150.27;100.00;61272.81;5217883;28;20392;-72
2022/09/24 08:41:52;;;;;;;20.63;18.43;;;;;;;-150.27;100.00;61272.81;5232207;28;20499;-74
2022/09/24 08:47:48;;;;;;;19.43;17.50;;;;;;;-150.27;100.00;61272.81;5232643;28;20480;-73
2022/09/24 08:50:21;;;;;;;21.02;18.80;;;;;;;-150.27;100.00;61272.81;5224528;28;20873;-72
2022/09/24 08:53:11;;;;;;;22.17;19.97;;;;;;;-150.27;100.00;61272.81;5225050;28;20423;-72
2022/09/24 08:55:48;;;;;;;23.80;21.13;;;;;;;-150.27;100.00;61272.81;5215703;28;20034;-72
2022/09/24 08:58:19;;;;;;;24.27;20.33;;;;;;;-150.27;100.00;61272.81;5229173;28;20377;-73
2022/09/24 09:01:09;;;;;;;24.43;20.17;;;;;;;-150.27;100.00;61272.81;5214219;28;20038;-72
2022/09/24 09:04:03;;;;;;;22.67;20.37;;;;;;;-150.27;100.00;61272.81;5214211;28;20038;-73
2022/09/24 09:06:43;;;;;;;23.90;21.38;;;;;;;-150.27;100.00;61272.81;5219724;28;20030;-73
2022/09/24 09:10:02;;;;;;;25.30;22.70;;;;;;;-150.27;100.00;61272.81;5215092;28;20057;-73
2022/09/24 09:12:41;;;;;;;24.17;21.57;;;;;;;-150.27;100.00;61272.81;5185982;28;20525;-72
2022/09/24 09:15:18;;;;;;;23.10;20.70;;;;;;;-150.27;100.00;61272.81;5196722;28;20025;-73
2022/09/24 09:17:52;;;;;;;24.50;21.97;;;;;;;-150.27;100.00;61272.81;5216183;28;20424;-72
2022/09/24 09:20:30;;;;;;;21.83;19.38;;;;;;;-150.27;100.00;61272.81;5213465;28;20030;-72
2022/09/24 09:23:32;;;;;;;25.20;22.07;;;;;;;-150.27;100.00;61272.81;5214766;28;20026;-72
2022/09/24 09:26:08;;;;;;;27.00;22.23;;;;;;;-150.27;100.00;61272.81;5216402;28;20448;-72
2022/09/24 09:28:39;;;;;;;27.50;24.40;;;;;;;-150.27;100.00;61272.81;5214143;28;20029;-72
2022/09/24 09:31:22;;;;;;;28.10;22.90;;;;;;;-150.27;100.00;61272.81;5219239;28;20506;-73
2022/09/24 09:34:15;;;;;;;24.80;22.10;;;;;;;-150.27;100.00;61272.81;5216001;28;20032;-71
2022/09/24 09:37:11;;;;;;;24.43;21.07;;;;;;;-150.27;100.00;61272.81;5202584;28;20053;-74
2022/09/24 09:39:49;;;;;;;22.97;20.53;;;;;;;-150.27;100.00;61272.81;5230171;28;20095;-72
2022/09/24 09:42:35;;;;;;;23.20;20.70;;;;;;;-150.27;100.00;61272.81;5213942;28;20061;-72
2022/09/24 09:45:36;;;;;;;23.37;20.87;;;;;;;-150.27;100.00;61272.81;5223964;28;20412;-72
2022/09/24 09:48:13;;;;;;;25.00;20.97;;;;;;;-150.27;100.00;61272.81;5234804;28;20034;-73
2022/09/24 09:50:50;;;;;;;21.27;18.90;;;;;;;-150.27;100.00;61272.81;5233569;28;20049;-74
2022/09/24 09:53:27;;;;;;;23.13;20.70;;;;;;;-150.27;100.00;61272.81;5216085;28;20357;-72
2022/09/24 09:56:06;;;;;;;23.47;20.87;;;;;;;-150.27;100.00;61272.81;5225550;28;20084;-73
2022/09/24 09:58:43;;;;;;;23.00;19.43;;;;;;;-150.27;100.00;61272.81;5213554;28;20500;-73
2022/09/24 10:01:18;;;;;;;23.13;19.13;;;;;;;-150.27;100.00;61272.81;5217116;28;20026;-73
2022/09/24 10:03:50;;;;;;;21.97;19.63;;;;;;;-150.27;100.00;61272.81;5221774;28;20069;-72
2022/09/24 10:06:27;;;;;;;22.77;19.20;;;;;;;-150.27;100.00;61272.81;5226714;28;20071;-72
2022/09/24 10:09:21;;;;;;;19.77;17.70;;;;;;;-150.27;100.00;61272.81;5234741;28;20093;-72
2022/09/24 10:11:52;;;;;;;21.52;19.40;;;;;;;-150.27;100.00;61272.81;5226531;28;20117;-75
2022/09/24 10:14:23;;;;;;;20.47;18.30;;;;;;;-150.27;100.00;61272.81;5215333;28;20113;-72
2022/09/24 10:16:55;;;;;;;19.27;17.23;;;;;;;-150.27;100.00;61272.81;5219882;28;20029;-73
2022/09/24 10:19:27;;;;;;;24.87;18.73;;;;;;;-150.27;100.00;61272.81;5218858;28;20105;-74
2022/09/24 10:22:08;;;;;;;22.67;19.53;;;;;;;-150.27;100.00;61272.81;5218115;28;20079;-74
2022/09/24 10:24:42;;;;;;;20.43;17.33;;;;;;;-150.27;100.00;61272.81;5224728;28;20034;-72
2022/09/24 10:27:23;;;;;;;24.33;18.92;;;;;;;-150.27;100.00;61272.81;5217871;28;20037;-76
2022/09/24 10:32:47;;;;;;;20.40;17.17;;;;;;;-150.27;100.00;61272.81;5217420;28;20037;-75
2022/09/24 10:35:26;;;;;;;20.73;18.52;;;;;;;-150.27;100.00;61272.81;5220404;28;20029;-73
2022/09/24 10:37:59;;;;;;;20.50;18.33;;;;;;;-150.27;100.00;61272.81;5218036;28;20026;-72
2022/09/24 10:40:38;;;;;;;19.90;17.90;;;;;;;-150.27;100.00;61272.81;5214928;28;20109;-72
2022/09/24 10:43:16;;;;;;;21.33;19.10;;;;;;;-150.27;100.00;61272.81;5209453;28;21752;-74
2022/09/24 10:46:03;;;;;;;20.20;18.00;;;;;;;-150.27;100.00;61272.81;5221115;28;20092;-72
2022/09/24 10:48:43;;;;;;;21.77;19.53;;;;;;;-150.27;100.00;61272.81;5212616;28;20086;-72
2022/09/24 10:51:38;;;;;;;22.37;18.00;;;;;;;-150.27;100.00;61272.81;5213952;28;20026;-72
2022/09/24 10:54:21;;;;;;;19.58;16.77;;;;;;;-150.27;100.00;61272.81;5195969;28;20028;-73
2022/09/24 10:56:56;;;;;;;21.07;17.83;;;;;;;-150.27;100.00;61272.81;5213710;28;20782;-72
2022/09/24 10:59:45;;;;;;;20.10;17.92;;;;;;;-150.27;100.00;61272.81;5215131;28;20044;-74
2022/09/24 11:02:48;;;;;;;19.27;15.73;;;;;;;-150.27;100.00;61272.81;5218564;28;20526;-73
2022/09/24 11:05:21;;;;;;;19.43;17.47;;;;;;;-150.27;100.00;61272.81;5167365;28;20069;-73
2022/09/24 11:08:05;;;;;;;18.30;16.50;;;;;;;-150.27;100.00;61272.81;5214342;28;20046;-73
2022/09/24 11:11:01;;;;;;;21.30;16.60;;;;;;;-150.27;100.00;61272.81;5213489;28;20035;-76
2022/09/24 11:14:18;;;;;;;19.67;17.67;;;;;;;-150.27;100.00;61272.81;5201751;28;20413;-76
2022/09/24 11:17:25;;;;;;;18.63;16.73;;;;;;;-150.27;100.00;61272.81;5200085;28;20204;-76
2022/09/24 11:20:05;;;;;;;18.60;16.60;;;;;;;-150.27;100.00;61272.81;5205311;28;20037;-72
2022/09/24 11:23:00;;;;;;;19.53;16.20;;;;;;;-150.27;100.00;61272.81;5227153;28;20375;-72
2022/09/24 11:25:54;;;;;;;18.08;15.98;;;;;;;-150.27;100.00;61272.81;5227858;28;20030;-72
2022/09/24 11:29:03;;;;;;;16.77;14.97;;;;;;;-150.27;100.00;61272.81;5213274;28;20113;-72
2022/09/24 11:31:47;;;;;;;17.83;15.10;;;;;;;-150.27;100.00;61272.81;5217605;28;20083;-72
2022/09/24 11:34:36;;;;;;;18.67;15.53;;;;;;;-150.27;100.00;61272.81;5205194;28;20041;-73
2022/09/24 11:37:38;;;;;;;18.47;16.57;;;;;;;-150.27;100.00;61272.81;5221518;28;20033;-72
2022/09/24 11:40:34;;;;;;;18.83;14.97;;;;;;;-150.27;100.00;61272.81;5215159;28;20771;-72
2022/09/24 11:43:20;;;;;;;17.87;14.67;;;;;;;-150.27;100.00;61272.81;5223238;28;20037;-73
2022/09/24 11:46:31;;;;;;;14.60;12.83;;;;;;;-150.27;100.00;61272.81;5213203;28;20049;-72
2022/09/24 11:49:25;;;;;;;16.07;12.47;;;;;;;-150.27;100.00;61272.81;5221795;28;20049;-72
2022/09/24 11:52:11;;;;;;;14.37;12.27;;;;;;;-150.27;100.00;61272.81;5223546;28;20033;-73